EDT,Max TemperatureF,Mean TemperatureF,Min TemperatureF,Max Dew PointF,MeanDew PointF,Min DewpointF,Max Humidity, Mean Humidity, Min Humidity, Max Sea Level PressureIn, Mean Sea Level PressureIn, Min Sea Level PressureIn, Max VisibilityMiles, Mean VisibilityMiles, Min VisibilityMiles, Max Wind SpeedMPH, Mean Wind SpeedMPH, Max Gust SpeedMPH,PrecipitationIn, CloudCover, Events, WindDirDegrees
2012-5-1,48,45,41,46,42,29,100,73,46,30.22,30.09,30.02,10,2,0,14,8,20,0.64,8,Fog-Rain,83
2012-5-2,50,46,41,43,42,39,100,87,74,30.24,30.18,30.11,10,5,0,12,6,15,0.00,8,Fog,69
2012-5-3,50,47,44,49,45,43,100,93,86,30.20,30.15,30.11,10,3,0,9,5,15,0.20,8,Fog-Rain,146
2012-5-4,65,57,48,57,51,46,100,89,78,30.09,29.98,29.91,10,3,0,16,7,20,0.02,8,Fog-Rain,203
2012-5-5,63,57,51,55,52,47,100,86,72,30.09,29.98,29.93,10,4,0,8,2,12,0.02,6,Fog-Rain,59
2012-5-6,62,55,48,48,46,45,93,73,52,30.13,30.10,30.06,10,10,2,12,6,15,0.00,5,,74
2012-5-7,70,57,43,47,43,38,96,64,31,30.15,30.11,30.07,10,10,10,16,5,20,0.00,2,,205
2012-5-8,55,51,46,53,47,40,100,82,63,30.09,29.98,29.88,10,9,4,21,11,26,0.43,8,Rain,200
2012-5-9,61,58,55,59,57,53,100,97,93,29.87,29.71,29.59,10,2,0,16,7,23,0.20,8,Fog-Rain,209
2012-5-10,62,53,43,57,48,36,100,74,47,29.71,29.52,29.43,10,8,2,23,13,31,0.44,6,Rain,287
2012-5-11,62,53,43,37,34,29,82,57,31,30.07,29.87,29.72,10,10,10,28,12,36,0.00,3,,277
2012-5-12,76,61,46,39,33,25,58,40,21,30.18,30.12,30.07,10,10,10,22,11,31,0.00,0,,275
2012-5-13,80,69,57,52,44,40,67,46,25,30.17,30.13,30.07,10,10,10,17,9,28,0.00,1,,249
2012-5-14,69,63,56,61,54,48,87,77,67,30.18,30.15,30.10,10,9,0,14,6,18,0.18,6,Rain,206
2012-5-15,69,63,57,59,56,51,100,78,55,30.16,30.07,29.97,10,5,0,20,10,28,0.52,7,Fog-Rain,168
2012-5-16,71,66,60,63,60,59,100,84,68,29.98,29.91,29.83,10,6,0,16,7,21,T,6,Fog-Rain,205
2012-5-17,67,57,47,56,38,32,84,57,29,30.16,30.05,29.91,10,10,10,20,9,25,0.00,0,,310
2012-5-18,70,59,47,41,37,32,63,47,31,30.26,30.21,30.17,10,10,10,15,5,18,0.00,0,,125
2012-5-19,77,63,49,44,40,32,59,44,29,30.20,30.17,30.14,10,10,2,13,7,17,0.00,0,,67
2012-5-20,80,69,58,48,45,41,57,44,30,30.31,30.25,30.18,10,10,9,15,7,17,0.00,0,,151
2012-5-21,67,60,53,61,54,40,100,75,49,30.28,30.19,30.09,10,6,0,10,5,15,0.09,6,Fog-Rain,73
2012-5-22,62,60,57,61,59,57,100,97,93,30.06,29.92,29.85,10,2,0,13,7,20,0.65,8,Fog-Rain,44
2012-5-23,72,66,59,64,60,57,100,84,68,30.08,29.95,29.86,10,8,2,10,5,14,0.04,7,Rain,320
2012-5-24,75,67,58,62,59,57,100,79,57,30.26,30.18,30.08,10,7,0,15,7,18,0.00,6,Fog,179
2012-5-25,73,66,58,64,60,57,100,87,73,30.27,30.22,30.13,10,6,0,16,8,22,0.01,7,Fog-Rain,157
2012-5-26,82,74,66,67,63,51,93,71,49,30.14,30.11,30.07,10,10,8,17,11,23,0.00,5,,260
2012-5-27,81,73,64,59,51,46,84,59,33,30.19,30.12,30.04,10,10,10,15,7,21,0.00,1,,312
2012-5-28,79,70,61,65,60,54,93,74,54,30.04,29.98,29.94,10,10,6,14,7,17,T,4,,125
2012-5-29,83,74,64,70,65,63,100,81,62,29.93,29.83,29.72,10,6,1,33,6,51,0.56,6,Rain-Thunderstorm,139
2012-5-30,73,68,63,64,61,57,100,81,61,29.78,29.75,29.71,10,10,9,14,7,25,T,5,Rain,239
2012-5-31,77,69,60,55,50,46,78,57,36,29.94,29.80,29.74,10,10,10,16,9,21,T,3,Rain,313